sensor_id;sensor_type;location;lat;lon;timestamp;pressure;altitude;pressure_sealevel;temperature;humidity
69842;BME280;57138;51.326;-0.068;2022-12-20T00:00:11;98817.94;;;10.84;100.00
69842;BME280;57138;51.326;-0.068;2022-12-20T00:02:36;98832.34;;;11.01;100.00
69842;BME280;57138;51.326;-0.068;2022-12-20T00:05:02;98829.88;;;11.00;100.00
69842;BME280;57138;51.326;-0.068;2022-12-20T00:07:28;98814.75;;;10.93;100.00
69842;BME280;57138;51.326;-0.068;2022-12-20T00:09:53;98804.81;;;10.82;100.00
69842;BME280;57138;51.326;-0.068;2022-12-20T00:12:18;98809.25;;;10.88;100.00
69842;BME280;57138;51.326;-0.068;2022-12-20T00:14:44;98808.44;;;10.88;100.00
69842;BME280;57138;51.326;-0.068;2022-12-20T00:17:09;98823.28;;;11.02;100.00
69842;BME280;57138;51.326;-0.068;2022-12-20T00:19:34;98819.06;;;10.94;100.00
69842;BME280;57138;51.326;-0.068;2022-12-20T00:22:00;98827.81;;;11.02;100.00
69842;BME280;57138;51.326;-0.068;2022-12-20T00:24:25;98805.03;;;10.81;100.00
69842;BME280;57138;51.326;-0.068;2022-12-20T00:26:51;98794.34;;;10.81;100.00
69842;BME280;57138;51.326;-0.068;2022-12-20T00:29:16;98799.81;;;10.86;100.00
69842;BME280;57138;51.326;-0.068;2022-12-20T00:31:41;98784.84;;;10.85;100.00
69842;BME280;57138;51.326;-0.068;2022-12-20T00:34:08;98806.03;;;10.98;100.00
69842;BME280;57138;51.326;-0.068;2022-12-20T00:36:33;98793.09;;;10.83;100.00
69842;BME280;57138;51.326;-0.068;2022-12-20T00:38:59;98800.91;;;10.96;100.00
69842;BME280;57138;51.326;-0.068;2022-12-20T00:41:27;98803.59;;;10.96;100.00
69842;BME280;57138;51.326;-0.068;2022-12-20T00:43:53;98786.09;;;10.82;100.00
69842;BME280;57138;51.326;-0.068;2022-12-20T00:46:20;98794.63;;;10.91;100.00
69842;BME280;57138;51.326;-0.068;2022-12-20T00:48:47;98801.59;;;10.92;100.00
69842;BME280;57138;51.326;-0.068;2022-12-20T00:51:19;98786.16;;;10.94;100.00
69842;BME280;57138;51.326;-0.068;2022-12-20T00:53:45;98787.31;;;10.98;100.00
69842;BME280;57138;51.326;-0.068;2022-12-20T00:56:11;98771.25;;;10.86;100.00
69842;BME280;57138;51.326;-0.068;2022-12-20T00:58:39;98786.28;;;10.99;100.00
69842;BME280;57138;51.326;-0.068;2022-12-20T01:01:18;98786.38;;;10.92;100.00
69842;BME280;57138;51.326;-0.068;2022-12-20T01:03:44;98799.34;;;11.07;100.00
69842;BME280;57138;51.326;-0.068;2022-12-20T01:06:09;98783.88;;;11.09;100.00
69842;BME280;57138;51.326;-0.068;2022-12-20T01:08:35;98801.56;;;11.10;100.00
69842;BME280;57138;51.326;-0.068;2022-12-20T01:11:12;98783.03;;;10.97;100.00
69842;BME280;57138;51.326;-0.068;2022-12-20T01:13:41;98796.22;;;11.10;100.00
69842;BME280;57138;51.326;-0.068;2022-12-20T01:16:10;98763.72;;;10.95;100.00
69842;BME280;57138;51.326;-0.068;2022-12-20T01:18:36;98782.03;;;11.10;100.00
69842;BME280;57138;51.326;-0.068;2022-12-20T01:21:07;98757.44;;;11.01;100.00
69842;BME280;57138;51.326;-0.068;2022-12-20T01:23:32;98784.69;;;11.10;100.00
69842;BME280;57138;51.326;-0.068;2022-12-20T01:26:02;98761.75;;;11.02;100.00
69842;BME280;57138;51.326;-0.068;2022-12-20T01:28:30;98784.94;;;11.08;100.00
69842;BME280;57138;51.326;-0.068;2022-12-20T01:30:56;98779.81;;;11.07;100.00
69842;BME280;57138;51.326;-0.068;2022-12-20T01:33:22;98785.84;;;11.02;100.00
69842;BME280;57138;51.326;-0.068;2022-12-20T01:36:15;98762.47;;;11.09;100.00
69842;BME280;57138;51.326;-0.068;2022-12-20T01:38:41;98767.00;;;10.97;100.00
69842;BME280;57138;51.326;-0.068;2022-12-20T01:41:07;98764.78;;;11.06;100.00
69842;BME280;57138;51.326;-0.068;2022-12-20T01:43:56;98760.72;;;11.03;100.00
69842;BME280;57138;51.326;-0.068;2022-12-20T01:46:24;98764.13;;;11.10;100.00
69842;BME280;57138;51.326;-0.068;2022-12-20T01:49:15;98761.78;;;11.14;100.00
69842;BME280;57138;51.326;-0.068;2022-12-20T01:51:44;98778.22;;;11.18;100.00
69842;BME280;57138;51.326;-0.068;2022-12-20T01:54:17;98779.84;;;11.19;100.00
69842;BME280;57138;51.326;-0.068;2022-12-20T01:56:47;98772.41;;;11.21;100.00
69842;BME280;57138;51.326;-0.068;2022-12-20T01:59:14;98770.31;;;11.23;100.00
69842;BME280;57138;51.326;-0.068;2022-12-20T02:01:41;98754.00;;;11.12;100.00
69842;BME280;57138;51.326;-0.068;2022-12-20T02:04:07;98760.06;;;11.20;100.00
69842;BME280;57138;51.326;-0.068;2022-12-20T02:06:34;98732.47;;;11.07;100.00
69842;BME280;57138;51.326;-0.068;2022-12-20T02:09:01;98736.31;;;11.11;100.00
69842;BME280;57138;51.326;-0.068;2022-12-20T02:11:32;98743.09;;;11.26;100.00
69842;BME280;57138;51.326;-0.068;2022-12-20T02:16:39;98728.31;;;11.11;100.00
69842;BME280;57138;51.326;-0.068;2022-12-20T02:19:24;98749.72;;;11.23;100.00
69842;BME280;57138;51.326;-0.068;2022-12-20T02:27:32;98735.41;;;11.18;100.00
69842;BME280;57138;51.326;-0.068;2022-12-20T02:30:06;98767.41;;;11.24;100.00
69842;BME280;57138;51.326;-0.068;2022-12-20T02:32:53;98750.31;;;11.25;100.00
69842;BME280;57138;51.326;-0.068;2022-12-20T02:35:24;98738.22;;;11.23;100.00
69842;BME280;57138;51.326;-0.068;2022-12-20T02:37:56;98746.13;;;11.18;100.00
69842;BME280;57138;51.326;-0.068;2022-12-20T02:40:25;98730.97;;;11.11;100.00
69842;BME280;57138;51.326;-0.068;2022-12-20T02:42:56;98759.34;;;11.12;100.00
69842;BME280;57138;51.326;-0.068;2022-12-20T02:45:26;98728.53;;;11.10;100.00
69842;BME280;57138;51.326;-0.068;2022-12-20T02:48:04;98728.75;;;11.08;100.00
69842;BME280;57138;51.326;-0.068;2022-12-20T02:53:02;98722.56;;;10.96;100.00
69842;BME280;57138;51.326;-0.068;2022-12-20T02:55:40;98716.84;;;10.92;100.00
69842;BME280;57138;51.326;-0.068;2022-12-20T02:59:02;98721.66;;;11.02;100.00
69842;BME280;57138;51.326;-0.068;2022-12-20T03:01:08;98713.50;;;10.97;100.00
69842;BME280;57138;51.326;-0.068;2022-12-20T03:03:35;98683.22;;;10.85;100.00
69842;BME280;57138;51.326;-0.068;2022-12-20T03:06:01;98717.84;;;11.10;100.00
69842;BME280;57138;51.326;-0.068;2022-12-20T03:08:26;98722.34;;;11.09;100.00
69842;BME280;57138;51.326;-0.068;2022-12-20T03:10:53;98719.56;;;11.04;100.00
69842;BME280;57138;51.326;-0.068;2022-12-20T03:13:19;98702.81;;;10.97;100.00
69842;BME280;57138;51.326;-0.068;2022-12-20T03:15:45;98676.53;;;10.94;100.00
69842;BME280;57138;51.326;-0.068;2022-12-20T03:18:11;98703.16;;;11.01;100.00
69842;BME280;57138;51.326;-0.068;2022-12-20T03:20:36;98690.56;;;10.89;100.00
69842;BME280;57138;51.326;-0.068;2022-12-20T03:23:02;98699.06;;;10.98;100.00
69842;BME280;57138;51.326;-0.068;2022-12-20T03:25:28;98687.69;;;11.03;100.00
69842;BME280;57138;51.326;-0.068;2022-12-20T03:27:53;98659.75;;;10.87;100.00
69842;BME280;57138;51.326;-0.068;2022-12-20T03:30:18;98676.63;;;10.99;100.00
69842;BME280;57138;51.326;-0.068;2022-12-20T03:32:44;98668.34;;;10.89;100.00
69842;BME280;57138;51.326;-0.068;2022-12-20T03:35:10;98685.13;;;10.96;100.00
69842;BME280;57138;51.326;-0.068;2022-12-20T03:37:35;98659.03;;;10.79;100.00
69842;BME280;57138;51.326;-0.068;2022-12-20T03:40:01;98670.44;;;10.87;100.00
69842;BME280;57138;51.326;-0.068;2022-12-20T03:42:26;98678.47;;;10.87;100.00
69842;BME280;57138;51.326;-0.068;2022-12-20T03:44:51;98665.66;;;10.89;100.00
69842;BME280;57138;51.326;-0.068;2022-12-20T03:47:17;98673.00;;;10.82;100.00
69842;BME280;57138;51.326;-0.068;2022-12-20T03:49:42;98668.47;;;10.82;100.00
69842;BME280;57138;51.326;-0.068;2022-12-20T03:52:10;98677.91;;;10.96;100.00
69842;BME280;57138;51.326;-0.068;2022-12-20T03:54:36;98659.75;;;10.87;100.00
69842;BME280;57138;51.326;-0.068;2022-12-20T03:57:01;98673.00;;;10.93;100.00
69842;BME280;57138;51.326;-0.068;2022-12-20T03:59:27;98686.75;;;10.97;100.00
69842;BME280;57138;51.326;-0.068;2022-12-20T04:01:52;98647.28;;;10.81;100.00
69842;BME280;57138;51.326;-0.068;2022-12-20T04:04:18;98658.56;;;10.83;100.00
69842;BME280;57138;51.326;-0.068;2022-12-20T04:06:43;98653.69;;;10.79;100.00
69842;BME280;57138;51.326;-0.068;2022-12-20T04:09:09;98669.88;;;10.96;100.00
69842;BME280;57138;51.326;-0.068;2022-12-20T04:11:34;98653.03;;;10.96;100.00
69842;BME280;57138;51.326;-0.068;2022-12-20T04:13:59;98654.53;;;10.92;100.00
69842;BME280;57138;51.326;-0.068;2022-12-20T04:16:27;98660.47;;;10.94;100.00
69842;BME280;57138;51.326;-0.068;2022-12-20T04:18:52;98639.53;;;10.91;100.00
69842;BME280;57138;51.326;-0.068;2022-12-20T04:21:27;98648.13;;;10.93;100.00
69842;BME280;57138;51.326;-0.068;2022-12-20T04:23:53;98644.28;;;10.89;100.00
69842;BME280;57138;51.326;-0.068;2022-12-20T04:26:19;98653.38;;;10.88;100.00
69842;BME280;57138;51.326;-0.068;2022-12-20T04:28:44;98638.00;;;10.83;100.00
69842;BME280;57138;51.326;-0.068;2022-12-20T04:31:10;98662.31;;;10.82;100.00
69842;BME280;57138;51.326;-0.068;2022-12-20T04:33:36;98642.53;;;10.83;100.00
69842;BME280;57138;51.326;-0.068;2022-12-20T04:36:02;98638.88;;;10.65;100.00
69842;BME280;57138;51.326;-0.068;2022-12-20T04:38:27;98639.84;;;10.71;100.00
69842;BME280;57138;51.326;-0.068;2022-12-20T04:40:54;98641.38;;;10.78;100.00
69842;BME280;57138;51.326;-0.068;2022-12-20T04:43:20;98646.00;;;10.71;100.00
69842;BME280;57138;51.326;-0.068;2022-12-20T04:45:47;98656.81;;;10.76;100.00
69842;BME280;57138;51.326;-0.068;2022-12-20T04:48:14;98629.94;;;10.71;100.00
69842;BME280;57138;51.326;-0.068;2022-12-20T04:50:40;98616.47;;;10.66;100.00
69842;BME280;57138;51.326;-0.068;2022-12-20T04:53:05;98634.25;;;10.72;100.00
69842;BME280;57138;51.326;-0.068;2022-12-20T04:55:50;98645.44;;;10.81;100.00
69842;BME280;57138;51.326;-0.068;2022-12-20T04:58:15;98615.41;;;10.67;100.00
69842;BME280;57138;51.326;-0.068;2022-12-20T05:00:41;98608.00;;;10.69;100.00
69842;BME280;57138;51.326;-0.068;2022-12-20T05:03:07;98633.47;;;10.84;100.00
69842;BME280;57138;51.326;-0.068;2022-12-20T05:05:32;98621.75;;;10.85;100.00
69842;BME280;57138;51.326;-0.068;2022-12-20T05:07:58;98613.44;;;10.74;100.00
69842;BME280;57138;51.326;-0.068;2022-12-20T05:10:24;98613.56;;;10.79;100.00
69842;BME280;57138;51.326;-0.068;2022-12-20T05:12:49;98639.53;;;10.91;100.00
69842;BME280;57138;51.326;-0.068;2022-12-20T05:15:15;98631.97;;;10.88;100.00
69842;BME280;57138;51.326;-0.068;2022-12-20T05:17:40;98609.38;;;10.72;100.00
69842;BME280;57138;51.326;-0.068;2022-12-20T05:20:06;98622.31;;;10.87;100.00
69842;BME280;57138;51.326;-0.068;2022-12-20T05:22:32;98600.78;;;10.70;100.00
69842;BME280;57138;51.326;-0.068;2022-12-20T05:25:16;98625.41;;;10.72;100.00
69842;BME280;57138;51.326;-0.068;2022-12-20T05:28:00;98615.66;;;10.77;100.00
69842;BME280;57138;51.326;-0.068;2022-12-20T05:30:26;98603.31;;;10.65;100.00
69842;BME280;57138;51.326;-0.068;2022-12-20T05:32:52;98622.66;;;10.78;100.00
69842;BME280;57138;51.326;-0.068;2022-12-20T05:35:18;98613.69;;;10.73;100.00
69842;BME280;57138;51.326;-0.068;2022-12-20T05:37:44;98622.19;;;10.82;100.00
69842;BME280;57138;51.326;-0.068;2022-12-20T05:40:10;98605.31;;;10.69;100.00
69842;BME280;57138;51.326;-0.068;2022-12-20T05:42:35;98616.41;;;10.85;100.00
69842;BME280;57138;51.326;-0.068;2022-12-20T05:45:01;98594.63;;;10.69;100.00
69842;BME280;57138;51.326;-0.068;2022-12-20T05:47:27;98592.63;;;10.65;100.00
69842;BME280;57138;51.326;-0.068;2022-12-20T05:49:52;98627.66;;;10.87;100.00
69842;BME280;57138;51.326;-0.068;2022-12-20T05:52:18;98626.94;;;10.79;100.00
69842;BME280;57138;51.326;-0.068;2022-12-20T05:54:43;98605.66;;;10.73;100.00
69842;BME280;57138;51.326;-0.068;2022-12-20T05:57:09;98606.94;;;10.70;100.00
69842;BME280;57138;51.326;-0.068;2022-12-20T05:59:34;98606.34;;;10.68;100.00
69842;BME280;57138;51.326;-0.068;2022-12-20T06:02:00;98614.38;;;10.68;100.00
69842;BME280;57138;51.326;-0.068;2022-12-20T06:04:25;98644.03;;;10.78;100.00
69842;BME280;57138;51.326;-0.068;2022-12-20T06:06:51;98647.88;;;10.83;100.00
69842;BME280;57138;51.326;-0.068;2022-12-20T06:09:17;98646.84;;;10.84;100.00
69842;BME280;57138;51.326;-0.068;2022-12-20T06:11:42;98633.19;;;10.73;100.00
69842;BME280;57138;51.326;-0.068;2022-12-20T06:14:08;98641.50;;;10.84;100.00
69842;BME280;57138;51.326;-0.068;2022-12-20T06:16:33;98628.69;;;10.74;100.00
69842;BME280;57138;51.326;-0.068;2022-12-20T06:18:58;98660.31;;;10.89;100.00
69842;BME280;57138;51.326;-0.068;2022-12-20T06:21:24;98658.56;;;10.83;100.00
69842;BME280;57138;51.326;-0.068;2022-12-20T06:23:52;98668.22;;;10.84;100.00
69842;BME280;57138;51.326;-0.068;2022-12-20T06:26:18;98660.56;;;10.87;100.00
69842;BME280;57138;51.326;-0.068;2022-12-20T06:28:43;98668.34;;;10.89;100.00
69842;BME280;57138;51.326;-0.068;2022-12-20T06:31:10;98648.78;;;10.76;100.00
69842;BME280;57138;51.326;-0.068;2022-12-20T06:33:36;98683.03;;;10.98;100.00
69842;BME280;57138;51.326;-0.068;2022-12-20T06:36:02;98698.03;;;10.99;100.00
69842;BME280;57138;51.326;-0.068;2022-12-20T06:38:28;98693.03;;;10.91;100.00
69842;BME280;57138;51.326;-0.068;2022-12-20T06:40:53;98691.03;;;10.86;100.00
69842;BME280;57138;51.326;-0.068;2022-12-20T06:43:18;98698.03;;;10.99;100.00
69842;BME280;57138;51.326;-0.068;2022-12-20T06:45:44;98685.44;;;10.88;100.00
69842;BME280;57138;51.326;-0.068;2022-12-20T06:48:10;98694.63;;;10.92;100.00
69842;BME280;57138;51.326;-0.068;2022-12-20T06:50:37;98706.97;;;10.93;100.00
69842;BME280;57138;51.326;-0.068;2022-12-20T06:53:03;98701.50;;;10.88;100.00
69842;BME280;57138;51.326;-0.068;2022-12-20T06:55:28;98720.91;;;10.95;100.00
69842;BME280;57138;51.326;-0.068;2022-12-20T06:57:54;98705.53;;;10.78;100.00
69842;BME280;57138;51.326;-0.068;2022-12-20T07:00:21;98736.97;;;10.95;100.00
69842;BME280;57138;51.326;-0.068;2022-12-20T07:02:46;98740.69;;;10.94;100.00
69842;BME280;57138;51.326;-0.068;2022-12-20T07:05:11;98725.28;;;10.77;100.00
69842;BME280;57138;51.326;-0.068;2022-12-20T07:07:37;98751.41;;;10.94;100.00
69842;BME280;57138;51.326;-0.068;2022-12-20T07:10:02;98732.53;;;10.89;100.00
69842;BME280;57138;51.326;-0.068;2022-12-20T07:12:28;98744.41;;;10.93;100.00
69842;BME280;57138;51.326;-0.068;2022-12-20T07:14:53;98744.34;;;10.81;100.00
69842;BME280;57138;51.326;-0.068;2022-12-20T07:17:19;98763.66;;;10.83;100.00
69842;BME280;57138;51.326;-0.068;2022-12-20T07:19:44;98780.28;;;10.85;100.00
69842;BME280;57138;51.326;-0.068;2022-12-20T07:22:10;98763.38;;;10.73;100.00
69842;BME280;57138;51.326;-0.068;2022-12-20T07:24:35;98779.19;;;10.74;100.00
69842;BME280;57138;51.326;-0.068;2022-12-20T07:27:01;98815.88;;;10.86;100.00
69842;BME280;57138;51.326;-0.068;2022-12-20T07:29:27;98814.69;;;10.82;100.00
69842;BME280;57138;51.326;-0.068;2022-12-20T07:31:52;98821.06;;;10.81;100.00
69842;BME280;57138;51.326;-0.068;2022-12-20T07:34:18;98826.72;;;10.72;100.00
69842;BME280;57138;51.326;-0.068;2022-12-20T07:36:43;98820.06;;;10.63;100.00
69842;BME280;57138;51.326;-0.068;2022-12-20T07:39:09;98843.44;;;10.68;100.00
69842;BME280;57138;51.326;-0.068;2022-12-20T07:41:34;98833.56;;;10.50;100.00
69842;BME280;57138;51.326;-0.068;2022-12-20T07:44:00;98835.28;;;10.44;100.00
69842;BME280;57138;51.326;-0.068;2022-12-20T07:46:26;98825.25;;;10.39;100.00
69842;BME280;57138;51.326;-0.068;2022-12-20T07:48:51;98836.38;;;10.36;100.00
69842;BME280;57138;51.326;-0.068;2022-12-20T07:51:21;98866.69;;;10.49;100.00
69842;BME280;57138;51.326;-0.068;2022-12-20T07:53:51;98861.78;;;10.46;100.00
69842;BME280;57138;51.326;-0.068;2022-12-20T07:56:19;98870.22;;;10.42;100.00
69842;BME280;57138;51.326;-0.068;2022-12-20T07:58:48;98871.47;;;10.40;100.00
69842;BME280;57138;51.326;-0.068;2022-12-20T08:01:16;98867.66;;;10.29;100.00
69842;BME280;57138;51.326;-0.068;2022-12-20T08:03:47;98868.66;;;10.28;100.00
69842;BME280;57138;51.326;-0.068;2022-12-20T08:06:14;98849.94;;;10.10;100.00
69842;BME280;57138;51.326;-0.068;2022-12-20T08:08:45;98869.28;;;10.05;100.00
69842;BME280;57138;51.326;-0.068;2022-12-20T08:11:11;98876.91;;;10.01;100.00
69842;BME280;57138;51.326;-0.068;2022-12-20T08:13:38;98876.41;;;9.86;100.00
69842;BME280;57138;51.326;-0.068;2022-12-20T08:16:04;98887.75;;;9.81;100.00
69842;BME280;57138;51.326;-0.068;2022-12-20T08:18:30;98886.00;;;9.68;100.00
69842;BME280;57138;51.326;-0.068;2022-12-20T08:20:56;98899.16;;;9.63;100.00
69842;BME280;57138;51.326;-0.068;2022-12-20T08:23:21;98879.16;;;9.41;100.00
69842;BME280;57138;51.326;-0.068;2022-12-20T08:25:47;98895.38;;;9.39;100.00
69842;BME280;57138;51.326;-0.068;2022-12-20T08:28:12;98921.00;;;9.47;100.00
69842;BME280;57138;51.326;-0.068;2022-12-20T08:30:38;98928.66;;;9.37;100.00
69842;BME280;57138;51.326;-0.068;2022-12-20T08:33:03;98913.09;;;9.27;100.00
69842;BME280;57138;51.326;-0.068;2022-12-20T08:35:30;98944.47;;;9.38;100.00
69842;BME280;57138;51.326;-0.068;2022-12-20T08:37:55;98945.09;;;9.33;100.00
69842;BME280;57138;51.326;-0.068;2022-12-20T08:40:21;98946.75;;;9.28;100.00
69842;BME280;57138;51.326;-0.068;2022-12-20T08:42:46;98933.06;;;9.11;100.00
69842;BME280;57138;51.326;-0.068;2022-12-20T08:45:12;98933.31;;;9.03;100.00
69842;BME280;57138;51.326;-0.068;2022-12-20T08:47:37;98943.13;;;9.09;100.00
69842;BME280;57138;51.326;-0.068;2022-12-20T08:50:03;98962.41;;;9.11;100.00
69842;BME280;57138;51.326;-0.068;2022-12-20T08:52:29;98933.75;;;8.93;100.00
69842;BME280;57138;51.326;-0.068;2022-12-20T08:54:54;98935.38;;;8.94;100.00
69842;BME280;57138;51.326;-0.068;2022-12-20T08:57:20;98933.16;;;8.84;100.00
69842;BME280;57138;51.326;-0.068;2022-12-20T08:59:45;98967.56;;;8.92;100.00
69842;BME280;57138;51.326;-0.068;2022-12-20T09:02:11;98945.69;;;8.70;100.00
69842;BME280;57138;51.326;-0.068;2022-12-20T09:04:36;98945.28;;;8.67;100.00
69842;BME280;57138;51.326;-0.068;2022-12-20T09:07:02;98957.13;;;8.71;100.00
69842;BME280;57138;51.326;-0.068;2022-12-20T09:09:28;98966.97;;;8.77;100.00
69842;BME280;57138;51.326;-0.068;2022-12-20T09:11:53;98963.72;;;8.68;100.00
69842;BME280;57138;51.326;-0.068;2022-12-20T09:14:18;98957.78;;;8.59;100.00
69842;BME280;57138;51.326;-0.068;2022-12-20T09:16:45;98972.72;;;8.67;100.00
69842;BME280;57138;51.326;-0.068;2022-12-20T09:19:12;98989.13;;;8.71;100.00
69842;BME280;57138;51.326;-0.068;2022-12-20T09:21:38;98982.38;;;8.68;100.00
69842;BME280;57138;51.326;-0.068;2022-12-20T09:24:03;99001.44;;;8.72;100.00
69842;BME280;57138;51.326;-0.068;2022-12-20T09:26:30;98990.56;;;8.67;100.00
69842;BME280;57138;51.326;-0.068;2022-12-20T09:28:57;98966.59;;;8.53;100.00
69842;BME280;57138;51.326;-0.068;2022-12-20T09:31:24;98975.59;;;8.52;99.91
69842;BME280;57138;51.326;-0.068;2022-12-20T09:33:54;99009.84;;;8.69;99.96
69842;BME280;57138;51.326;-0.068;2022-12-20T09:36:21;99018.84;;;8.68;99.81
69842;BME280;57138;51.326;-0.068;2022-12-20T09:38:47;99019.88;;;8.67;99.51
69842;BME280;57138;51.326;-0.068;2022-12-20T09:44:13;99003.88;;;8.60;99.78
69842;BME280;57138;51.326;-0.068;2022-12-20T09:46:40;98989.53;;;8.48;99.60
69842;BME280;57138;51.326;-0.068;2022-12-20T09:49:14;99033.81;;;8.62;99.47
69842;BME280;57138;51.326;-0.068;2022-12-20T09:52:26;99044.06;;;8.58;99.11
69842;BME280;57138;51.326;-0.068;2022-12-20T09:57:29;99051.44;;;8.50;98.85
69842;BME280;57138;51.326;-0.068;2022-12-20T09:59:58;99050.19;;;8.45;98.65
69842;BME280;57138;51.326;-0.068;2022-12-20T10:02:25;99047.75;;;8.44;98.82
69842;BME280;57138;51.326;-0.068;2022-12-20T10:04:52;99041.56;;;8.37;98.90
69842;BME280;57138;51.326;-0.068;2022-12-20T10:15:53;99066.16;;;8.39;98.34
69842;BME280;57138;51.326;-0.068;2022-12-20T10:21:04;99036.00;;;8.32;99.21
69842;BME280;57138;51.326;-0.068;2022-12-20T10:23:38;99036.44;;;8.35;98.90
69842;BME280;57138;51.326;-0.068;2022-12-20T10:26:12;99053.03;;;8.37;98.70
69842;BME280;57138;51.326;-0.068;2022-12-20T10:28:38;99065.34;;;8.38;98.60
69842;BME280;57138;51.326;-0.068;2022-12-20T10:31:13;99052.22;;;8.37;98.58
69842;BME280;57138;51.326;-0.068;2022-12-20T10:33:40;99053.63;;;8.39;98.64
69842;BME280;57138;51.326;-0.068;2022-12-20T10:36:36;99062.91;;;8.43;98.36
69842;BME280;57138;51.326;-0.068;2022-12-20T10:39:07;99060.25;;;8.43;98.29
69842;BME280;57138;51.326;-0.068;2022-12-20T10:46:50;99065.16;;;8.47;98.08
69842;BME280;57138;51.326;-0.068;2022-12-20T10:52:12;99063.72;;;8.44;97.75
69842;BME280;57138;51.326;-0.068;2022-12-20T10:54:42;99070.28;;;8.48;97.57
69842;BME280;57138;51.326;-0.068;2022-12-20T10:59:52;99057.19;;;8.53;97.55
69842;BME280;57138;51.326;-0.068;2022-12-20T11:07:50;99048.97;;;8.55;96.80
69842;BME280;57138;51.326;-0.068;2022-12-20T11:10:21;99055.94;;;8.62;96.68
69842;BME280;57138;51.326;-0.068;2022-12-20T11:12:54;99066.19;;;8.66;96.75
69842;BME280;57138;51.326;-0.068;2022-12-20T11:15:23;99060.88;;;8.66;96.96
69842;BME280;57138;51.326;-0.068;2022-12-20T11:17:52;99063.75;;;8.71;96.58
69842;BME280;57138;51.326;-0.068;2022-12-20T11:23:12;99067.03;;;8.79;95.86
69842;BME280;57138;51.326;-0.068;2022-12-20T11:29:02;99069.47;;;8.88;95.17
69842;BME280;57138;51.326;-0.068;2022-12-20T11:46:13;99082.81;;;9.08;94.05
69842;BME280;57138;51.326;-0.068;2022-12-20T11:48:44;99079.72;;;9.11;93.58
69842;BME280;57138;51.326;-0.068;2022-12-20T11:51:24;99076.63;;;9.14;93.25
69842;BME280;57138;51.326;-0.068;2022-12-20T11:54:06;99050.38;;;9.11;93.04
69842;BME280;57138;51.326;-0.068;2022-12-20T11:56:39;99064.53;;;9.18;92.50
69842;BME280;57138;51.326;-0.068;2022-12-20T11:59:25;99066.16;;;9.19;92.55
69842;BME280;57138;51.326;-0.068;2022-12-20T12:02:01;99062.69;;;9.18;92.03
69842;BME280;57138;51.326;-0.068;2022-12-20T12:04:33;99067.00;;;9.20;92.15
69842;BME280;57138;51.326;-0.068;2022-12-20T12:07:08;99068.81;;;9.19;91.75
69842;BME280;57138;51.326;-0.068;2022-12-20T12:10:00;99074.78;;;9.21;91.15
69842;BME280;57138;51.326;-0.068;2022-12-20T12:12:31;99070.88;;;9.17;91.39
69842;BME280;57138;51.326;-0.068;2022-12-20T12:22:53;99027.81;;;9.07;90.11
69842;BME280;57138;51.326;-0.068;2022-12-20T12:25:22;98987.88;;;8.80;90.79
69842;BME280;57138;51.326;-0.068;2022-12-20T12:27:48;99014.13;;;8.96;90.70
69842;BME280;57138;51.326;-0.068;2022-12-20T12:30:14;99028.88;;;9.06;90.73
69842;BME280;57138;51.326;-0.068;2022-12-20T12:38:29;99047.72;;;9.24;90.12
69842;BME280;57138;51.326;-0.068;2022-12-20T12:41:05;99035.81;;;9.20;89.38
69842;BME280;57138;51.326;-0.068;2022-12-20T12:46:42;99032.75;;;9.10;89.12
69842;BME280;57138;51.326;-0.068;2022-12-20T12:49:20;99036.63;;;9.14;88.02
69842;BME280;57138;51.326;-0.068;2022-12-20T12:51:53;99025.97;;;9.00;88.73
69842;BME280;57138;51.326;-0.068;2022-12-20T12:54:29;99048.75;;;9.10;87.69
69842;BME280;57138;51.326;-0.068;2022-12-20T12:57:01;99026.00;;;8.94;88.01
69842;BME280;57138;51.326;-0.068;2022-12-20T13:20:20;99056.78;;;8.96;87.71
69842;BME280;57138;51.326;-0.068;2022-12-20T13:25:49;99056.38;;;8.93;87.98
69842;BME280;57138;51.326;-0.068;2022-12-20T13:33:38;99036.47;;;8.69;87.76
69842;BME280;57138;51.326;-0.068;2022-12-20T13:36:31;99044.47;;;8.75;87.76
69842;BME280;57138;51.326;-0.068;2022-12-20T13:39:03;99042.00;;;8.74;87.28
69842;BME280;57138;51.326;-0.068;2022-12-20T13:41:40;99040.38;;;8.73;87.56
69842;BME280;57138;51.326;-0.068;2022-12-20T13:46:45;99039.97;;;8.69;87.12
69842;BME280;57138;51.326;-0.068;2022-12-20T13:49:21;99033.00;;;8.61;87.30
69842;BME280;57138;51.326;-0.068;2022-12-20T13:51:47;99024.41;;;8.53;87.19
69842;BME280;57138;51.326;-0.068;2022-12-20T13:54:17;99066.41;;;8.71;87.59
69842;BME280;57138;51.326;-0.068;2022-12-20T13:56:45;99061.06;;;8.71;87.49
69842;BME280;57138;51.326;-0.068;2022-12-20T14:01:49;99068.47;;;8.69;87.62
69842;BME280;57138;51.326;-0.068;2022-12-20T14:04:17;99035.66;;;8.48;86.90
69842;BME280;57138;51.326;-0.068;2022-12-20T14:06:43;99035.25;;;8.51;87.07
69842;BME280;57138;51.326;-0.068;2022-12-20T14:09:34;99058.00;;;8.60;87.43
69842;BME280;57138;51.326;-0.068;2022-12-20T14:12:13;99065.38;;;8.58;87.11
69842;BME280;57138;51.326;-0.068;2022-12-20T14:14:44;99068.66;;;8.54;87.45
69842;BME280;57138;51.326;-0.068;2022-12-20T14:17:15;99072.75;;;8.50;87.57
69842;BME280;57138;51.326;-0.068;2022-12-20T14:19:41;99077.25;;;8.49;86.99
69842;BME280;57138;51.326;-0.068;2022-12-20T14:22:09;99078.50;;;8.47;86.75
69842;BME280;57138;51.326;-0.068;2022-12-20T14:24:35;99073.13;;;8.40;86.84
69842;BME280;57138;51.326;-0.068;2022-12-20T14:27:03;99071.06;;;8.35;87.02
69842;BME280;57138;51.326;-0.068;2022-12-20T14:29:29;99067.81;;;8.40;86.40
69842;BME280;57138;51.326;-0.068;2022-12-20T14:31:55;99082.13;;;8.39;87.31
69842;BME280;57138;51.326;-0.068;2022-12-20T14:34:27;99057.75;;;8.35;87.61
69842;BME280;57138;51.326;-0.068;2022-12-20T14:40:17;99061.81;;;8.24;87.40
69842;BME280;57138;51.326;-0.068;2022-12-20T14:42:43;99070.81;;;8.23;87.69
69842;BME280;57138;51.326;-0.068;2022-12-20T14:47:47;99043.91;;;7.91;88.26
69842;BME280;57138;51.326;-0.068;2022-12-20T14:50:17;99067.72;;;8.13;87.83
69842;BME280;57138;51.326;-0.068;2022-12-20T14:52:44;99073.84;;;8.07;88.27